Time;durP1;ratioP1;P1;durP2;ratioP2;P2;SDS_P1;SDS_P2;PMS_P1;PMS_P2;Temp;Humidity;BMP_temperature;BMP_pressure;BME280_temperature;BME280_humidity;BME280_pressure;Samples;Min_cycle;Max_cycle;Signal;HPM_P1;HPM_P2
2022/07/07 00:00:49;;;;;;;5.13;3.37;;;18.30;73.90;;;;;;4864404;29;20194;-62
2022/07/07 00:03:15;;;;;;;4.10;2.87;;;18.20;74.00;;;;;;4849820;29;20189;-62
2022/07/07 00:05:40;;;;;;;3.73;2.67;;;18.20;73.40;;;;;;4868643;29;20192;-62
2022/07/07 00:08:06;;;;;;;4.60;3.00;;;18.20;73.90;;;;;;4871703;29;20189;-62
2022/07/07 00:10:32;;;;;;;3.27;2.93;;;18.20;74.00;;;;;;4857412;29;20204;-62
2022/07/07 00:12:58;;;;;;;5.67;3.57;;;18.20;74.10;;;;;;4852047;29;20248;-62
2022/07/07 00:15:23;;;;;;;4.47;3.17;;;18.20;74.20;;;;;;4852379;29;20211;-62
2022/07/07 00:17:49;;;;;;;3.33;3.07;;;18.20;74.60;;;;;;4851992;29;20192;-62
2022/07/07 00:20:14;;;;;;;3.67;3.33;;;18.20;74.10;;;;;;4848986;29;20188;-62
2022/07/07 00:22:40;;;;;;;3.67;2.70;;;18.20;74.70;;;;;;4844397;29;20251;-62
2022/07/07 00:25:07;;;;;;;4.10;3.10;;;18.10;74.70;;;;;;4849193;29;20203;-62
2022/07/07 00:27:33;;;;;;;5.47;3.17;;;18.10;74.30;;;;;;4862780;29;20243;-62
2022/07/07 00:29:58;;;;;;;3.10;2.67;;;18.00;74.20;;;;;;4864658;29;20268;-62
2022/07/07 00:32:24;;;;;;;4.47;3.37;;;18.00;74.90;;;;;;4851238;29;20267;-62
2022/07/07 00:34:50;;;;;;;9.13;3.57;;;18.10;74.40;;;;;;4872271;29;20219;-62
2022/07/07 00:37:15;;;;;;;3.20;2.80;;;18.10;74.30;;;;;;4860031;29;20192;-62
2022/07/07 00:39:41;;;;;;;3.33;3.03;;;18.00;74.60;;;;;;4849735;29;20254;-62
2022/07/07 00:42:12;;;;;;;3.50;2.90;;;18.00;74.40;;;;;;4868378;29;20197;-62
2022/07/07 00:44:37;;;;;;;3.77;3.23;;;17.90;75.10;;;;;;4877693;29;20200;-62
2022/07/07 00:47:05;;;;;;;5.50;2.97;;;17.80;75.20;;;;;;4856011;29;20195;-62
2022/07/07 00:49:32;;;;;;;3.43;2.87;;;17.80;75.50;;;;;;4877093;29;20184;-62
2022/07/07 00:51:58;;;;;;;3.87;3.10;;;17.80;76.00;;;;;;4849175;29;20199;-62
2022/07/07 00:54:25;;;;;;;4.13;3.73;;;17.70;75.50;;;;;;4881479;29;20184;-62
2022/07/07 00:56:51;;;;;;;3.17;2.87;;;17.70;75.70;;;;;;4861136;29;20222;-62
2022/07/07 00:59:17;;;;;;;5.03;3.50;;;17.60;75.80;;;;;;4867137;29;20275;-62
2022/07/07 01:01:43;;;;;;;3.40;3.10;;;17.50;76.10;;;;;;4881731;29;20188;-62
2022/07/07 01:04:11;;;;;;;4.00;3.70;;;17.50;76.10;;;;;;4867316;29;20223;-62
2022/07/07 01:06:37;;;;;;;4.70;3.03;;;17.60;75.90;;;;;;4882604;29;20227;-62
2022/07/07 01:09:03;;;;;;;4.10;2.90;;;17.60;76.10;;;;;;4882607;29;20188;-62
2022/07/07 01:11:45;;;;;;;3.70;3.40;;;17.70;75.50;;;;;;4884612;29;20304;-62
2022/07/07 01:14:11;;;;;;;3.80;3.20;;;17.60;75.80;;;;;;4866776;29;20191;-62
2022/07/07 01:16:36;;;;;;;5.13;3.60;;;17.50;76.00;;;;;;4865146;29;20219;-62
2022/07/07 01:19:02;;;;;;;5.03;3.17;;;17.60;75.80;;;;;;4871565;29;20194;-62
2022/07/07 01:21:33;;;;;;;3.87;3.57;;;17.50;76.10;;;;;;4857455;29;20188;-62
2022/07/07 01:23:59;;;;;;;4.97;3.07;;;17.60;76.00;;;;;;4882148;29;20188;-62
2022/07/07 01:26:26;;;;;;;3.77;3.20;;;17.50;76.50;;;;;;4851506;29;20206;-62
2022/07/07 01:28:52;;;;;;;4.97;3.20;;;17.50;76.50;;;;;;4887344;29;20235;-62
2022/07/07 01:31:18;;;;;;;8.07;3.33;;;17.50;76.60;;;;;;4854014;29;20191;-62
2022/07/07 01:33:43;;;;;;;4.50;3.40;;;17.50;76.30;;;;;;4851558;29;20199;-62
2022/07/07 01:36:13;;;;;;;4.07;3.67;;;17.40;76.50;;;;;;4856363;29;20263;-62
2022/07/07 01:38:38;;;;;;;3.80;3.50;;;17.30;76.80;;;;;;4863495;29;20196;-62
2022/07/07 01:41:04;;;;;;;3.50;3.20;;;17.30;76.50;;;;;;4865814;29;20219;-62
2022/07/07 01:43:30;;;;;;;4.57;3.30;;;17.30;76.80;;;;;;4871925;29;20189;-62
2022/07/07 01:45:55;;;;;;;5.33;3.70;;;17.30;77.20;;;;;;4864856;29;20196;-62
2022/07/07 01:48:23;;;;;;;3.90;3.50;;;17.30;77.10;;;;;;4865291;29;20189;-62
2022/07/07 01:50:48;;;;;;;4.03;3.63;;;17.30;77.20;;;;;;4881771;29;20199;-62
2022/07/07 01:53:15;;;;;;;3.73;3.23;;;17.30;77.00;;;;;;4837244;29;20204;-62
2022/07/07 01:55:41;;;;;;;4.10;3.50;;;17.30;76.70;;;;;;4851842;29;20220;-62
2022/07/07 01:58:07;;;;;;;4.73;3.37;;;17.30;76.70;;;;;;4875224;29;20252;-62
2022/07/07 02:00:32;;;;;;;3.97;3.57;;;17.20;77.40;;;;;;4878707;29;20224;-62
2022/07/07 02:02:58;;;;;;;4.67;4.23;;;17.20;77.70;;;;;;4883783;29;20198;-62
2022/07/07 02:05:24;;;;;;;7.07;3.87;;;17.10;77.80;;;;;;4865299;29;20207;-62
2022/07/07 02:07:50;;;;;;;4.20;3.43;;;17.10;77.80;;;;;;4864729;29;20204;-62
2022/07/07 02:11:12;;;;;;;5.03;3.77;;;17.20;77.90;;;;;;4851594;29;20203;-62
2022/07/07 02:13:04;;;;;;;4.03;3.13;;;17.10;78.40;;;;;;4860138;29;20260;-62
2022/07/07 02:15:32;;;;;;;3.57;3.27;;;17.20;77.90;;;;;;4869689;29;20244;-62
2022/07/07 02:17:58;;;;;;;4.23;3.93;;;17.20;78.10;;;;;;4885146;29;20195;-62
2022/07/07 02:20:23;;;;;;;4.70;3.67;;;17.10;78.50;;;;;;4863132;29;20196;-62
2022/07/07 02:22:49;;;;;;;4.43;4.00;;;17.20;78.30;;;;;;4869799;29;20196;-62
2022/07/07 02:25:15;;;;;;;4.07;3.73;;;17.20;78.30;;;;;;4868815;29;20203;-62
2022/07/07 02:27:40;;;;;;;3.80;3.50;;;17.20;78.20;;;;;;4854216;29;20244;-62
2022/07/07 02:30:07;;;;;;;4.07;3.77;;;17.20;78.00;;;;;;4869698;29;20196;-62
2022/07/07 02:32:32;;;;;;;4.63;3.77;;;17.20;78.30;;;;;;4879542;29;20206;-62
2022/07/07 02:34:58;;;;;;;6.10;3.97;;;17.10;78.30;;;;;;4852089;29;20310;-62
2022/07/07 02:37:28;;;;;;;4.70;3.57;;;17.10;78.30;;;;;;4884870;29;20184;-62
2022/07/07 02:39:53;;;;;;;4.53;3.90;;;17.10;78.00;;;;;;4866653;29;20199;-62
2022/07/07 02:42:19;;;;;;;4.13;3.73;;;17.20;77.70;;;;;;4864683;29;20192;-62
2022/07/07 02:44:45;;;;;;;3.77;3.43;;;17.10;78.00;;;;;;4869632;29;20200;-62
2022/07/07 02:47:10;;;;;;;4.93;3.60;;;17.30;78.00;;;;;;4869351;29;20208;-62
2022/07/07 02:49:36;;;;;;;4.10;3.70;;;17.20;78.00;;;;;;4868682;29;20216;-62
2022/07/07 02:52:03;;;;;;;4.30;3.60;;;17.20;78.20;;;;;;4869495;29;20244;-62
2022/07/07 02:54:29;;;;;;;4.20;3.90;;;17.10;78.10;;;;;;4869033;29;20198;-62
2022/07/07 02:56:54;;;;;;;4.20;3.80;;;17.10;78.40;;;;;;4864598;29;20220;-62
2022/07/07 02:59:20;;;;;;;4.83;4.40;;;17.00;78.80;;;;;;4863240;29;20188;-62
2022/07/07 03:01:46;;;;;;;4.00;3.70;;;17.00;79.10;;;;;;4868707;29;20283;-62
2022/07/07 03:04:11;;;;;;;3.90;3.60;;;16.90;78.90;;;;;;4868516;29;20192;-62
2022/07/07 03:06:37;;;;;;;5.40;3.83;;;17.00;78.80;;;;;;4850517;29;20208;-62
2022/07/07 03:09:03;;;;;;;4.60;4.20;;;16.90;79.10;;;;;;4883109;29;20196;-62
2022/07/07 03:11:29;;;;;;;4.90;4.40;;;16.80;79.30;;;;;;4853018;29;20285;-62
2022/07/07 03:13:54;;;;;;;3.70;3.40;;;16.80;79.50;;;;;;4850163;29;20217;-62
2022/07/07 03:16:20;;;;;;;4.67;3.77;;;16.80;79.40;;;;;;4851164;29;20226;-62
2022/07/07 03:18:46;;;;;;;4.30;3.90;;;16.80;79.40;;;;;;4845415;29;20251;-62
2022/07/07 03:21:11;;;;;;;3.93;3.63;;;16.90;79.30;;;;;;4869844;29;20200;-62
2022/07/07 03:23:37;;;;;;;4.53;4.13;;;16.90;79.00;;;;;;4869009;29;20251;-62
2022/07/07 03:26:03;;;;;;;5.27;3.80;;;16.90;79.40;;;;;;4851515;29;20201;-62
2022/07/07 03:28:29;;;;;;;4.13;3.47;;;16.80;79.70;;;;;;4880812;29;20239;-62
2022/07/07 03:30:54;;;;;;;4.90;3.80;;;16.90;79.70;;;;;;4849747;29;20200;-62
2022/07/07 03:33:20;;;;;;;6.63;3.77;;;17.00;79.50;;;;;;4875541;29;20243;-61
2022/07/07 03:35:45;;;;;;;4.00;3.70;;;17.10;78.70;;;;;;4883668;29;20211;-62
2022/07/07 03:38:11;;;;;;;4.07;3.63;;;17.10;79.10;;;;;;4867467;29;20350;-62
2022/07/07 03:40:37;;;;;;;4.17;3.87;;;17.00;79.50;;;;;;4866786;29;20241;-62
2022/07/07 03:43:02;;;;;;;4.60;4.20;;;17.10;79.50;;;;;;4867563;29;20200;-62
2022/07/07 03:45:28;;;;;;;5.03;4.30;;;17.10;79.20;;;;;;4868168;29;20216;-62
2022/07/07 03:47:54;;;;;;;5.77;3.70;;;17.10;79.00;;;;;;4852633;29;20192;-62
2022/07/07 03:50:19;;;;;;;4.40;3.70;;;17.10;79.10;;;;;;4852784;29;20227;-63
2022/07/07 03:52:45;;;;;;;3.43;3.13;;;17.30;78.30;;;;;;4852608;29;20196;-63
2022/07/07 03:55:11;;;;;;;4.13;3.73;;;17.30;77.90;;;;;;4851644;29;20257;-63
2022/07/07 03:57:38;;;;;;;5.57;4.50;;;17.30;78.60;;;;;;4880108;29;20213;-63
2022/07/07 04:00:04;;;;;;;4.17;3.70;;;17.30;78.40;;;;;;4846575;29;20192;-63
2022/07/07 04:02:30;;;;;;;4.57;3.87;;;17.30;78.30;;;;;;4875525;29;20274;-62
2022/07/07 04:04:55;;;;;;;4.87;4.13;;;17.30;78.50;;;;;;4867052;29;20228;-63
2022/07/07 04:07:21;;;;;;;6.03;4.20;;;17.30;78.40;;;;;;4867554;29;20228;-63
2022/07/07 04:09:47;;;;;;;4.07;3.67;;;17.30;77.90;;;;;;4852179;29;20208;-62
2022/07/07 04:12:13;;;;;;;6.70;3.77;;;17.30;78.40;;;;;;4847515;29;20783;-61
2022/07/07 04:14:38;;;;;;;4.53;3.47;;;17.30;78.10;;;;;;4867466;29;20290;-67
2022/07/07 04:17:04;;;;;;;6.10;3.80;;;17.40;77.90;;;;;;4868047;29;20200;-68
2022/07/07 04:19:30;;;;;;;4.23;3.93;;;17.40;77.90;;;;;;4875615;29;20252;-68
2022/07/07 04:21:56;;;;;;;4.37;3.97;;;17.50;78.40;;;;;;4882954;29;20191;-62
2022/07/07 04:24:21;;;;;;;4.13;3.73;;;17.50;78.20;;;;;;4883176;29;20187;-63
2022/07/07 04:26:48;;;;;;;4.20;3.90;;;17.50;78.20;;;;;;4856528;29;21523;-63
2022/07/07 04:29:14;;;;;;;5.80;4.20;;;17.50;78.10;;;;;;4849857;29;20244;-63
2022/07/07 04:31:44;;;;;;;6.87;3.90;;;17.50;78.90;;;;;;4877579;29;20192;-63
2022/07/07 04:34:12;;;;;;;4.87;4.00;;;17.60;79.10;;;;;;4842943;29;20199;-62
2022/07/07 04:36:38;;;;;;;5.00;4.17;;;17.60;79.30;;;;;;4875681;29;20204;-63
2022/07/07 04:39:04;;;;;;;4.00;3.70;;;17.70;78.30;;;;;;4866079;29;20223;-63
2022/07/07 04:41:29;;;;;;;4.67;4.23;;;17.70;78.40;;;;;;4862920;29;20188;-64
2022/07/07 04:43:55;;;;;;;4.53;4.03;;;17.80;78.30;;;;;;4858799;29;20188;-62
2022/07/07 04:46:21;;;;;;;4.70;4.30;;;17.70;78.80;;;;;;4848273;29;20218;-62
2022/07/07 04:48:47;;;;;;;4.87;4.30;;;17.80;78.70;;;;;;4861222;29;20199;-62
2022/07/07 04:51:12;;;;;;;5.37;4.70;;;17.80;78.40;;;;;;4864593;29;20195;-62
2022/07/07 04:53:38;;;;;;;4.23;3.77;;;17.80;78.40;;;;;;4847445;29;20201;-62
2022/07/07 04:56:04;;;;;;;4.33;4.00;;;17.80;78.00;;;;;;4848790;29;20310;-62
2022/07/07 04:58:30;;;;;;;4.83;4.43;;;17.90;77.70;;;;;;4881222;29;20183;-62
2022/07/07 05:00:56;;;;;;;4.30;4.00;;;17.90;77.90;;;;;;4870531;29;20192;-61
2022/07/07 05:03:21;;;;;;;5.37;4.60;;;17.90;77.40;;;;;;4847385;29;20244;-62
2022/07/07 05:05:47;;;;;;;4.57;4.17;;;18.00;77.10;;;;;;4861879;29;20247;-62
2022/07/07 05:08:13;;;;;;;5.17;3.83;;;18.00;77.30;;;;;;4861749;29;20197;-62
2022/07/07 05:10:38;;;;;;;5.93;4.20;;;18.00;76.60;;;;;;4856917;29;20291;-62
2022/07/07 05:13:05;;;;;;;4.97;3.83;;;18.10;76.90;;;;;;4844677;29;20230;-62
2022/07/07 05:15:30;;;;;;;4.80;4.20;;;18.20;76.80;;;;;;4856683;29;20247;-62
2022/07/07 05:17:56;;;;;;;6.53;4.27;;;18.20;76.70;;;;;;4845586;29;20208;-62
2022/07/07 05:20:22;;;;;;;4.40;3.83;;;18.20;76.20;;;;;;4844679;29;20197;-62
2022/07/07 05:22:47;;;;;;;5.93;4.33;;;18.20;76.10;;;;;;4866411;29;20196;-62
2022/07/07 05:25:13;;;;;;;5.03;3.93;;;18.30;76.10;;;;;;4852755;29;20201;-62
2022/07/07 05:27:39;;;;;;;7.47;4.20;;;18.30;75.60;;;;;;4868161;29;20252;-62
2022/07/07 05:30:05;;;;;;;5.13;4.60;;;18.30;76.50;;;;;;4854846;29;20243;-62
2022/07/07 05:32:31;;;;;;;4.97;4.30;;;18.30;76.00;;;;;;4872641;29;20192;-62
2022/07/07 05:34:56;;;;;;;8.43;4.47;;;18.40;75.90;;;;;;4856089;29;20252;-62
2022/07/07 05:37:22;;;;;;;5.83;4.37;;;18.40;76.00;;;;;;4853825;29;20197;-62
2022/07/07 05:39:48;;;;;;;4.63;4.20;;;18.40;76.60;;;;;;4859763;29;20260;-62
2022/07/07 05:42:14;;;;;;;5.00;4.50;;;18.40;77.00;;;;;;4853627;29;20208;-62
2022/07/07 05:44:41;;;;;;;6.13;4.77;;;18.50;77.20;;;;;;4857478;29;20211;-62
2022/07/07 05:47:07;;;;;;;6.43;4.37;;;18.50;75.80;;;;;;4852903;29;20196;-61
2022/07/07 05:49:33;;;;;;;5.40;4.30;;;18.60;76.60;;;;;;4880270;29;20256;-61
2022/07/07 05:51:58;;;;;;;5.97;4.37;;;18.60;74.80;;;;;;4872991;29;20200;-62
2022/07/07 05:54:24;;;;;;;7.00;4.70;;;18.70;74.40;;;;;;4853147;29;20206;-62
2022/07/07 05:56:50;;;;;;;9.40;4.53;;;18.70;75.50;;;;;;4851875;29;20284;-62
2022/07/07 05:59:15;;;;;;;8.53;4.70;;;18.70;75.80;;;;;;4868017;29;20311;-62
2022/07/07 06:01:41;;;;;;;6.70;4.20;;;18.70;75.90;;;;;;4857432;29;20200;-63
2022/07/07 06:04:07;;;;;;;4.60;4.23;;;18.70;74.70;;;;;;4858382;29;20201;-62
2022/07/07 06:06:33;;;;;;;8.90;4.47;;;18.70;76.30;;;;;;4867757;29;20203;-62
2022/07/07 06:08:59;;;;;;;6.97;4.27;;;18.70;75.20;;;;;;4865431;29;20214;-62
2022/07/07 06:11:24;;;;;;;4.97;4.10;;;18.80;75.20;;;;;;4839815;29;20238;-62
2022/07/07 06:13:50;;;;;;;7.17;4.87;;;18.80;75.10;;;;;;4851777;29;20203;-62
2022/07/07 06:16:15;;;;;;;6.80;4.47;;;18.80;74.50;;;;;;4866840;29;20220;-63
2022/07/07 06:18:41;;;;;;;6.10;4.50;;;18.90;74.80;;;;;;4883810;29;20195;-62
2022/07/07 06:21:07;;;;;;;6.13;4.50;;;18.90;75.00;;;;;;4866673;29;20209;-62
2022/07/07 06:23:32;;;;;;;5.73;4.00;;;19.00;75.10;;;;;;4865161;29;20200;-62
2022/07/07 06:26:02;;;;;;;7.57;5.10;;;19.00;75.00;;;;;;4867745;29;20207;-62
2022/07/07 06:28:29;;;;;;;14.80;5.47;;;19.10;75.90;;;;;;4853546;29;20244;-62
2022/07/07 06:30:54;;;;;;;6.87;4.70;;;19.10;76.10;;;;;;4882971;29;20203;-62
2022/07/07 06:33:20;;;;;;;7.93;5.00;;;19.00;75.70;;;;;;4848173;29;20261;-62
2022/07/07 06:35:45;;;;;;;9.13;4.80;;;19.00;75.80;;;;;;4867099;29;20231;-62
2022/07/07 06:38:11;;;;;;;9.10;4.50;;;19.00;76.10;;;;;;4852104;29;20196;-65
2022/07/07 06:40:37;;;;;;;5.50;4.77;;;19.00;74.60;;;;;;4864893;29;20245;-62
2022/07/07 06:43:02;;;;;;;6.57;4.90;;;19.00;75.30;;;;;;4850047;29;20196;-62
2022/07/07 06:45:29;;;;;;;6.90;4.50;;;19.00;75.20;;;;;;4861297;29;20211;-62
2022/07/07 06:47:55;;;;;;;9.20;4.60;;;19.10;75.40;;;;;;4844893;29;20220;-62
2022/07/07 06:50:21;;;;;;;8.33;4.87;;;19.10;75.90;;;;;;4856903;29;20195;-62
2022/07/07 06:52:46;;;;;;;5.37;4.87;;;19.10;75.90;;;;;;4859304;29;20192;-62
2022/07/07 06:55:12;;;;;;;5.17;4.13;;;19.10;74.00;;;;;;4867905;29;20217;-62
2022/07/07 06:57:38;;;;;;;8.63;4.30;;;19.10;74.30;;;;;;4863968;29;20228;-62
2022/07/07 07:00:06;;;;;;;7.70;4.77;;;19.20;73.50;;;;;;4872994;29;20185;-62
2022/07/07 07:02:31;;;;;;;6.90;4.40;;;19.20;73.80;;;;;;4854621;29;20216;-62
2022/07/07 07:04:57;;;;;;;8.57;4.33;;;19.20;73.80;;;;;;4864022;29;20227;-62
2022/07/07 07:07:23;;;;;;;4.83;4.33;;;19.20;74.40;;;;;;4857740;29;20208;-62
2022/07/07 07:09:49;;;;;;;7.10;4.73;;;19.30;75.00;;;;;;4879921;29;20199;-62
2022/07/07 07:12:14;;;;;;;4.70;4.20;;;19.30;75.20;;;;;;4851990;29;20184;-62
2022/07/07 07:14:40;;;;;;;5.23;4.70;;;19.30;75.80;;;;;;4861272;29;20216;-62
2022/07/07 07:17:06;;;;;;;5.20;4.50;;;19.30;76.40;;;;;;4879696;29;20212;-62
2022/07/07 07:19:31;;;;;;;6.20;4.40;;;19.30;74.40;;;;;;4844822;29;20208;-62
2022/07/07 07:21:57;;;;;;;7.63;4.23;;;19.40;73.50;;;;;;4875592;29;20200;-62
2022/07/07 07:24:23;;;;;;;5.23;4.33;;;19.50;73.60;;;;;;4849233;29;20189;-62
2022/07/07 07:26:48;;;;;;;5.97;3.93;;;19.60;73.50;;;;;;4865839;29;20324;-62
2022/07/07 07:29:14;;;;;;;4.63;4.10;;;19.70;73.30;;;;;;4849641;29;20290;-62
2022/07/07 07:31:40;;;;;;;5.43;4.10;;;19.80;72.90;;;;;;4866130;29;20191;-63
2022/07/07 07:34:05;;;;;;;4.50;4.10;;;19.80;73.10;;;;;;4866336;29;20199;-62
2022/07/07 07:36:31;;;;;;;6.87;3.67;;;19.90;73.40;;;;;;4847304;29;20234;-62
2022/07/07 07:38:58;;;;;;;2.93;2.73;;;20.00;69.90;;;;;;4850147;29;20226;-62
2022/07/07 07:41:23;;;;;;;4.13;3.03;;;20.00;71.00;;;;;;4850986;29;20259;-62
2022/07/07 07:43:49;;;;;;;3.30;3.00;;;20.10;68.90;;;;;;4846687;29;20196;-62
2022/07/07 07:46:15;;;;;;;3.43;3.00;;;20.20;67.50;;;;;;4854941;29;20197;-62
2022/07/07 07:48:40;;;;;;;3.00;2.70;;;20.20;68.90;;;;;;4849063;29;20254;-62
2022/07/07 07:51:06;;;;;;;3.53;2.83;;;20.30;69.00;;;;;;4847683;29;20268;-62
2022/07/07 07:53:32;;;;;;;4.07;2.83;;;20.30;69.90;;;;;;4864989;29;20313;-62
2022/07/07 07:55:58;;;;;;;4.60;2.87;;;20.30;70.40;;;;;;4865877;29;20287;-63
2022/07/07 07:58:23;;;;;;;2.87;2.67;;;20.40;70.50;;;;;;4862943;29;20218;-62
2022/07/07 08:00:49;;;;;;;5.80;2.90;;;20.40;71.70;;;;;;4852308;29;20290;-62
2022/07/07 08:03:15;;;;;;;3.47;3.17;;;20.50;72.60;;;;;;4845748;29;20193;-62
2022/07/07 08:05:41;;;;;;;4.73;2.90;;;20.50;70.90;;;;;;4863580;29;20204;-62
2022/07/07 08:08:06;;;;;;;4.47;2.83;;;20.60;65.00;;;;;;4853033;29;20278;-62
2022/07/07 08:10:33;;;;;;;4.43;3.30;;;20.70;66.20;;;;;;4863309;29;20204;-62
2022/07/07 08:12:58;;;;;;;3.37;3.03;;;20.80;67.30;;;;;;4876434;29;20191;-62
2022/07/07 08:15:24;;;;;;;4.43;3.27;;;20.90;68.90;;;;;;4840710;29;20216;-62
2022/07/07 08:17:52;;;;;;;3.20;2.90;;;20.90;70.30;;;;;;4879510;29;20254;-62
2022/07/07 08:20:17;;;;;;;3.37;3.10;;;20.90;69.70;;;;;;4864947;29;20207;-62
2022/07/07 08:22:43;;;;;;;3.30;3.00;;;21.00;70.30;;;;;;4881474;29;20231;-62
2022/07/07 08:25:09;;;;;;;5.03;3.30;;;21.00;72.40;;;;;;4880310;29;20207;-62
2022/07/07 08:27:34;;;;;;;3.73;2.80;;;21.00;71.70;;;;;;4850006;29;20246;-62
2022/07/07 08:30:01;;;;;;;5.77;3.10;;;21.10;71.00;;;;;;4859427;29;20197;-62
2022/07/07 08:32:27;;;;;;;2.97;2.67;;;21.10;68.90;;;;;;4846432;29;20223;-62
2022/07/07 08:34:52;;;;;;;3.13;2.83;;;21.10;69.20;;;;;;4877369;29;20183;-62
2022/07/07 08:37:18;;;;;;;3.30;3.00;;;21.20;65.90;;;;;;4880646;29;20196;-62
2022/07/07 08:39:44;;;;;;;4.60;3.00;;;21.30;62.10;;;;;;4864283;29;20266;-63
2022/07/07 08:42:11;;;;;;;3.00;2.80;;;21.40;65.20;;;;;;4865602;29;20191;-62
2022/07/07 08:44:37;;;;;;;2.93;2.73;;;21.50;61.90;;;;;;4877360;29;20199;-62
2022/07/07 08:47:03;;;;;;;3.07;2.70;;;21.70;61.30;;;;;;4876660;29;20203;-62
2022/07/07 08:49:30;;;;;;;4.77;3.07;;;21.80;58.60;;;;;;4896402;29;20195;-62
2022/07/07 08:51:56;;;;;;;3.47;3.17;;;21.80;58.90;;;;;;4861490;29;20200;-62
2022/07/07 08:54:24;;;;;;;3.00;2.80;;;21.90;59.90;;;;;;4879675;29;20282;-62
2022/07/07 08:56:50;;;;;;;6.47;2.70;;;22.10;58.70;;;;;;4879851;29;20212;-62
2022/07/07 08:59:17;;;;;;;3.83;2.83;;;22.20;60.30;;;;;;4863270;29;20198;-62
2022/07/07 09:01:56;;;;;;;3.70;3.30;;;22.40;63.50;;;;;;4863935;29;20280;-62
2022/07/07 09:04:23;;;;;;;3.63;3.33;;;22.60;63.50;;;;;;4875986;29;20202;-63
2022/07/07 09:07:00;;;;;;;4.03;2.53;;;22.70;63.50;;;;;;4879100;29;20187;-63
2022/07/07 09:09:42;;;;;;;3.60;2.60;;;22.70;60.20;;;;;;4877923;29;20191;-62
2022/07/07 09:12:10;;;;;;;3.30;2.77;;;22.70;58.30;;;;;;4875720;29;20189;-62
2022/07/07 09:14:41;;;;;;;2.93;2.53;;;22.80;55.60;;;;;;4876883;29;20200;-62
2022/07/07 09:17:30;;;;;;;2.60;2.40;;;22.80;55.80;;;;;;4873297;29;20295;-62
2022/07/07 09:20:12;;;;;;;3.30;2.90;;;22.80;57.60;;;;;;4860055;29;20218;-62
2022/07/07 09:22:54;;;;;;;4.40;2.90;;;23.00;57.30;;;;;;4890284;29;20191;-62
2022/07/07 09:25:22;;;;;;;5.77;2.70;;;23.20;59.80;;;;;;4880445;29;20247;-62
2022/07/07 09:28:00;;;;;;;3.43;3.13;;;23.30;59.10;;;;;;4879322;29;20270;-61
2022/07/07 09:30:28;;;;;;;2.97;2.77;;;23.30;60.20;;;;;;4878385;29;20240;-62
2022/07/07 09:32:53;;;;;;;3.20;3.00;;;23.30;61.60;;;;;;4879030;29;20195;-62
2022/07/07 09:38:15;;;;;;;4.70;3.30;;;23.40;62.90;;;;;;4890540;29;20249;-62
2022/07/07 09:40:59;;;;;;;4.23;3.57;;;23.40;63.40;;;;;;4865718;29;20239;-62
2022/07/07 09:43:27;;;;;;;4.00;3.60;;;23.40;63.70;;;;;;4890343;29;20188;-62
2022/07/07 09:46:07;;;;;;;3.10;2.87;;;23.40;59.00;;;;;;4864012;29;20223;-62
2022/07/07 09:48:34;;;;;;;4.40;3.07;;;23.40;61.50;;;;;;4876011;29;20195;-62
2022/07/07 09:51:18;;;;;;;4.23;3.33;;;23.30;64.90;;;;;;4843612;29;20200;-62
2022/07/07 09:54:08;;;;;;;4.47;2.97;;;23.30;65.00;;;;;;4870670;29;20197;-62
2022/07/07 09:56:44;;;;;;;2.93;2.73;;;23.30;65.60;;;;;;4873806;29;20204;-62
2022/07/07 09:59:12;;;;;;;3.60;3.30;;;23.20;65.60;;;;;;4875460;29;20218;-62
2022/07/07 10:01:41;;;;;;;5.63;3.40;;;23.20;65.80;;;;;;4872310;29;20195;-62
2022/07/07 10:04:09;;;;;;;4.53;3.33;;;23.20;65.40;;;;;;4877227;29;20192;-62
2022/07/07 10:06:37;;;;;;;3.97;3.23;;;23.10;62.30;;;;;;4862833;29;20200;-62
2022/07/07 10:09:08;;;;;;;3.57;3.27;;;23.10;62.20;;;;;;4878927;29;20187;-62
2022/07/07 10:11:41;;;;;;;3.67;3.37;;;23.10;65.40;;;;;;4879616;29;20269;-62
2022/07/07 10:14:23;;;;;;;3.63;2.87;;;23.00;64.20;;;;;;4874150;29;20306;-62
2022/07/07 10:16:51;;;;;;;3.90;3.10;;;22.90;61.70;;;;;;4880263;29;20283;-62
2022/07/07 10:19:23;;;;;;;6.70;4.23;;;22.90;64.60;;;;;;4868458;29;20228;-62
2022/07/07 10:21:53;;;;;;;5.60;5.10;;;22.90;70.70;;;;;;4867292;29;20255;-63
2022/07/07 10:24:21;;;;;;;6.13;4.63;;;22.70;78.80;;;;;;4871394;29;20188;-63
2022/07/07 10:26:53;;;;;;;4.57;4.20;;;22.50;78.00;;;;;;4865139;29;20274;-63
2022/07/07 10:29:43;;;;;;;4.87;4.23;;;22.10;79.00;;;;;;4879685;29;20349;-63
2022/07/07 10:32:12;;;;;;;5.40;5.00;;;21.80;80.80;;;;;;4884614;29;20207;-63
2022/07/07 10:34:39;;;;;;;5.43;4.93;;;21.40;81.50;;;;;;4883704;29;20294;-63
2022/07/07 10:37:11;;;;;;;5.33;4.80;;;21.30;82.20;;;;;;4880769;29;20271;-63
2022/07/07 10:39:41;;;;;;;5.27;4.77;;;21.10;83.70;;;;;;4882670;29;20197;-63
2022/07/07 10:42:16;;;;;;;6.03;5.17;;;21.00;84.50;;;;;;4869664;29;20192;-62
2022/07/07 10:44:53;;;;;;;5.67;5.17;;;20.80;84.80;;;;;;4883264;29;20225;-63
2022/07/07 10:47:19;;;;;;;5.93;5.53;;;20.70;85.10;;;;;;4891759;29;20191;-63
2022/07/07 10:49:47;;;;;;;6.00;5.57;;;20.60;85.10;;;;;;4885070;29;20202;-64
2022/07/07 10:52:17;;;;;;;8.47;7.40;;;20.60;85.30;;;;;;4884249;29;20204;-64
2022/07/07 10:54:49;;;;;;;8.27;7.23;;;20.60;87.10;;;;;;4854672;29;20226;-64
2022/07/07 10:57:19;;;;;;;8.87;7.90;;;20.60;88.80;;;;;;4883962;29;20219;-64
2022/07/07 10:59:58;;;;;;;9.13;7.97;;;20.60;88.70;;;;;;4883459;29;20222;-64
2022/07/07 11:02:51;;;;;;;9.30;8.40;;;20.70;89.20;;;;;;4884502;29;20260;-64
2022/07/07 11:05:17;;;;;;;7.27;6.57;;;20.80;89.70;;;;;;4881625;29;20223;-65
2022/07/07 11:08:06;;;;;;;6.43;5.70;;;20.80;88.10;;;;;;4884818;29;20202;-65
2022/07/07 11:10:53;;;;;;;6.23;5.70;;;20.80;88.30;;;;;;4892687;29;20196;-64
2022/07/07 11:13:35;;;;;;;6.33;5.83;;;20.90;88.00;;;;;;4868899;29;20196;-64
2022/07/07 11:16:12;;;;;;;5.80;5.30;;;21.20;88.60;;;;;;4883873;29;20306;-64
2022/07/07 11:18:38;;;;;;;5.97;5.40;;;21.30;87.90;;;;;;4896436;29;20198;-64
2022/07/07 11:21:05;;;;;;;5.50;5.10;;;21.30;87.80;;;;;;4857687;29;20200;-64
2022/07/07 11:23:54;;;;;;;5.43;4.87;;;21.20;86.50;;;;;;4879691;29;20200;-64
2022/07/07 11:26:23;;;;;;;5.43;4.93;;;21.00;86.30;;;;;;4878609;29;20262;-64
2022/07/07 11:28:50;;;;;;;5.37;4.97;;;20.90;86.10;;;;;;4882134;29;20240;-64
2022/07/07 11:31:16;;;;;;;5.97;5.57;;;20.80;85.80;;;;;;4869358;29;20196;-64
2022/07/07 11:33:47;;;;;;;5.73;5.27;;;20.70;87.40;;;;;;4851684;29;20196;-65
2022/07/07 11:36:18;;;;;;;6.60;5.93;;;20.60;88.10;;;;;;4881309;29;20226;-65
2022/07/07 11:38:45;;;;;;;5.60;5.10;;;20.50;88.80;;;;;;4888210;29;20199;-65
2022/07/07 11:41:11;;;;;;;5.63;5.13;;;20.30;87.00;;;;;;4877692;29;20228;-65
2022/07/07 11:43:36;;;;;;;6.90;6.30;;;20.20;87.80;;;;;;4864062;29;20220;-64
2022/07/07 11:46:03;;;;;;;7.17;6.47;;;20.20;88.40;;;;;;4864661;29;20227;-64
2022/07/07 11:48:34;;;;;;;6.93;6.30;;;20.00;88.80;;;;;;4864442;29;20200;-64
2022/07/07 11:51:00;;;;;;;7.90;7.10;;;19.90;89.10;;;;;;4887357;29;20192;-65
2022/07/07 11:53:25;;;;;;;8.83;7.90;;;19.80;89.90;;;;;;4873180;29;20196;-64
2022/07/07 11:55:51;;;;;;;8.10;7.37;;;19.80;90.50;;;;;;4858687;29;20276;-64
2022/07/07 11:58:17;;;;;;;7.43;6.83;;;19.60;90.00;;;;;;4865353;29;20200;-64
2022/07/07 12:00:42;;;;;;;11.60;7.50;;;19.40;89.90;;;;;;4857075;29;20204;-64
2022/07/07 12:03:09;;;;;;;11.10;9.83;;;19.30;90.00;;;;;;4848157;29;20197;-66
2022/07/07 12:05:43;;;;;;;12.63;11.00;;;19.30;91.30;;;;;;4888031;29;20199;-67
2022/07/07 12:08:12;;;;;;;23.30;13.33;;;19.30;91.50;;;;;;4868163;29;20195;-65
2022/07/07 12:10:43;;;;;;;20.50;13.27;;;19.20;92.30;;;;;;4872098;29;20201;-66
2022/07/07 12:13:13;;;;;;;20.07;13.80;;;18.80;92.40;;;;;;4877311;29;20196;-65
2022/07/07 12:15:42;;;;;;;20.13;15.53;;;18.60;93.10;;;;;;4887808;29;20311;-65
2022/07/07 12:18:09;;;;;;;18.30;16.10;;;18.30;93.80;;;;;;4865308;29;20250;-66
2022/07/07 12:20:36;;;;;;;22.53;18.07;;;18.20;94.20;;;;;;4874328;29;20200;-65
2022/07/07 12:23:03;;;;;;;19.87;17.97;;;18.20;94.50;;;;;;4860811;29;20196;-65
2022/07/07 12:25:31;;;;;;;20.10;16.07;;;18.20;94.70;;;;;;4860824;29;20204;-65
2022/07/07 12:28:06;;;;;;;17.73;16.23;;;18.10;94.70;;;;;;4877401;29;20244;-65
2022/07/07 12:30:37;;;;;;;18.90;16.97;;;18.00;94.80;;;;;;4896778;29;20230;-64
2022/07/07 12:33:04;;;;;;;21.57;19.57;;;18.00;94.90;;;;;;4861438;29;20227;-64
2022/07/07 12:35:39;;;;;;;21.90;19.57;;;18.00;95.00;;;;;;4872924;29;20220;-64
2022/07/07 12:38:09;;;;;;;20.27;18.27;;;18.00;95.10;;;;;;4898086;29;20215;-64
2022/07/07 12:40:39;;;;;;;20.50;18.37;;;18.10;95.30;;;;;;4867645;29;20207;-64
2022/07/07 12:43:12;;;;;;;19.60;17.90;;;18.00;95.20;;;;;;4890106;29;20176;-64
2022/07/07 12:45:45;;;;;;;19.70;18.00;;;18.00;95.20;;;;;;4879372;29;20263;-64
2022/07/07 12:48:20;;;;;;;21.13;18.70;;;18.00;95.30;;;;;;4884451;29;20260;-64
2022/07/07 12:50:45;;;;;;;19.97;18.20;;;18.00;95.40;;;;;;4872575;29;20204;-64